sensor_id;sensor_type;location;lat;lon;timestamp;P1;durP1;ratioP1;P2;durP2;ratioP2
65202;SDS011;51788;45.124;38.966;2023-04-28T00:01:59;6.32;;;3.95;;
65202;SDS011;51788;45.124;38.966;2023-04-28T00:04:25;13.07;;;4.35;;
65202;SDS011;51788;45.124;38.966;2023-04-28T00:06:51;8.13;;;3.88;;
65202;SDS011;51788;45.124;38.966;2023-04-28T00:09:17;6.38;;;3.97;;
65202;SDS011;51788;45.124;38.966;2023-04-28T00:11:43;4.82;;;3.80;;
65202;SDS011;51788;45.124;38.966;2023-04-28T00:14:10;6.35;;;3.80;;
65202;SDS011;51788;45.124;38.966;2023-04-28T00:16:36;11.85;;;3.75;;
65202;SDS011;51788;45.124;38.966;2023-04-28T00:19:02;4.93;;;3.70;;
65202;SDS011;51788;45.124;38.966;2023-04-28T00:21:28;5.40;;;3.80;;
65202;SDS011;51788;45.124;38.966;2023-04-28T00:23:54;6.80;;;3.72;;
65202;SDS011;51788;45.124;38.966;2023-04-28T00:26:20;6.60;;;3.70;;
65202;SDS011;51788;45.124;38.966;2023-04-28T00:28:46;4.75;;;3.60;;
65202;SDS011;51788;45.124;38.966;2023-04-28T00:31:13;13.07;;;3.90;;
65202;SDS011;51788;45.124;38.966;2023-04-28T00:33:40;5.22;;;3.97;;
65202;SDS011;51788;45.124;38.966;2023-04-28T00:36:07;7.82;;;3.63;;
65202;SDS011;51788;45.124;38.966;2023-04-28T00:38:35;4.57;;;3.65;;
65202;SDS011;51788;45.124;38.966;2023-04-28T00:41:01;8.70;;;4.68;;
65202;SDS011;51788;45.124;38.966;2023-04-28T00:43:27;3.65;;;3.35;;
65202;SDS011;51788;45.124;38.966;2023-04-28T00:45:54;8.13;;;4.65;;
65202;SDS011;51788;45.124;38.966;2023-04-28T00:48:20;10.32;;;3.92;;
65202;SDS011;51788;45.124;38.966;2023-04-28T00:50:48;5.22;;;3.80;;
65202;SDS011;51788;45.124;38.966;2023-04-28T00:53:16;7.45;;;3.80;;
65202;SDS011;51788;45.124;38.966;2023-04-28T00:55:42;4.05;;;3.58;;
65202;SDS011;51788;45.124;38.966;2023-04-28T00:58:08;9.00;;;4.40;;
65202;SDS011;51788;45.124;38.966;2023-04-28T01:00:34;12.70;;;4.30;;
65202;SDS011;51788;45.124;38.966;2023-04-28T01:03:00;10.48;;;4.30;;
65202;SDS011;51788;45.124;38.966;2023-04-28T01:05:30;5.18;;;4.05;;
65202;SDS011;51788;45.124;38.966;2023-04-28T01:07:56;10.48;;;4.22;;
65202;SDS011;51788;45.124;38.966;2023-04-28T01:10:23;7.25;;;4.18;;
65202;SDS011;51788;45.124;38.966;2023-04-28T01:12:49;5.35;;;4.20;;
65202;SDS011;51788;45.124;38.966;2023-04-28T01:15:18;5.28;;;3.78;;
65202;SDS011;51788;45.124;38.966;2023-04-28T01:17:46;8.27;;;3.80;;
65202;SDS011;51788;45.124;38.966;2023-04-28T01:20:13;8.98;;;4.22;;
65202;SDS011;51788;45.124;38.966;2023-04-28T01:22:39;5.45;;;4.47;;
65202;SDS011;51788;45.124;38.966;2023-04-28T01:25:06;5.03;;;4.53;;
65202;SDS011;51788;45.124;38.966;2023-04-28T01:27:33;10.88;;;4.50;;
65202;SDS011;51788;45.124;38.966;2023-04-28T01:30:00;9.00;;;4.57;;
65202;SDS011;51788;45.124;38.966;2023-04-28T01:32:26;4.68;;;4.13;;
65202;SDS011;51788;45.124;38.966;2023-04-28T01:34:51;7.35;;;4.00;;
65202;SDS011;51788;45.124;38.966;2023-04-28T01:37:17;8.75;;;3.63;;
65202;SDS011;51788;45.124;38.966;2023-04-28T01:39:43;4.20;;;3.78;;
65202;SDS011;51788;45.124;38.966;2023-04-28T01:42:09;4.53;;;3.60;;
65202;SDS011;51788;45.124;38.966;2023-04-28T01:44:35;13.43;;;4.03;;
65202;SDS011;51788;45.124;38.966;2023-04-28T01:47:01;7.32;;;3.85;;
65202;SDS011;51788;45.124;38.966;2023-04-28T01:49:27;6.47;;;3.78;;
65202;SDS011;51788;45.124;38.966;2023-04-28T01:51:53;8.85;;;4.15;;
65202;SDS011;51788;45.124;38.966;2023-04-28T01:54:19;11.95;;;3.65;;
65202;SDS011;51788;45.124;38.966;2023-04-28T01:56:45;6.20;;;3.58;;
65202;SDS011;51788;45.124;38.966;2023-04-28T01:59:14;3.40;;;3.20;;
65202;SDS011;51788;45.124;38.966;2023-04-28T02:01:40;7.10;;;3.67;;
65202;SDS011;51788;45.124;38.966;2023-04-28T02:04:06;3.63;;;3.00;;
65202;SDS011;51788;45.124;38.966;2023-04-28T02:06:37;4.03;;;3.35;;
65202;SDS011;51788;45.124;38.966;2023-04-28T02:09:03;5.38;;;3.60;;
65202;SDS011;51788;45.124;38.966;2023-04-28T02:11:31;6.53;;;3.22;;
65202;SDS011;51788;45.124;38.966;2023-04-28T02:13:57;4.50;;;3.45;;
65202;SDS011;51788;45.124;38.966;2023-04-28T02:16:23;3.38;;;3.08;;
65202;SDS011;51788;45.124;38.966;2023-04-28T02:18:49;5.75;;;3.30;;
65202;SDS011;51788;45.124;38.966;2023-04-28T02:21:15;7.28;;;3.00;;
65202;SDS011;51788;45.124;38.966;2023-04-28T02:23:43;7.15;;;3.28;;
65202;SDS011;51788;45.124;38.966;2023-04-28T02:26:10;4.70;;;3.50;;
65202;SDS011;51788;45.124;38.966;2023-04-28T02:28:35;3.67;;;3.13;;
65202;SDS011;51788;45.124;38.966;2023-04-28T02:31:07;3.40;;;3.15;;
65202;SDS011;51788;45.124;38.966;2023-04-28T02:33:34;3.83;;;3.63;;
65202;SDS011;51788;45.124;38.966;2023-04-28T02:36:02;12.65;;;3.80;;
65202;SDS011;51788;45.124;38.966;2023-04-28T02:38:28;7.47;;;3.67;;
65202;SDS011;51788;45.124;38.966;2023-04-28T02:43:29;10.13;;;3.80;;
65202;SDS011;51788;45.124;38.966;2023-04-28T02:45:56;3.90;;;3.60;;
65202;SDS011;51788;45.124;38.966;2023-04-28T02:48:22;4.43;;;3.78;;
65202;SDS011;51788;45.124;38.966;2023-04-28T02:50:49;4.13;;;3.83;;
65202;SDS011;51788;45.124;38.966;2023-04-28T02:53:20;13.85;;;4.00;;
65202;SDS011;51788;45.124;38.966;2023-04-28T02:55:47;9.05;;;4.45;;
65202;SDS011;51788;45.124;38.966;2023-04-28T02:58:14;4.72;;;4.25;;
65202;SDS011;51788;45.124;38.966;2023-04-28T03:00:42;5.38;;;4.30;;
65202;SDS011;51788;45.124;38.966;2023-04-28T03:03:08;4.10;;;3.50;;
65202;SDS011;51788;45.124;38.966;2023-04-28T03:05:34;4.18;;;3.85;;
65202;SDS011;51788;45.124;38.966;2023-04-28T03:08:00;4.43;;;4.07;;
65202;SDS011;51788;45.124;38.966;2023-04-28T03:10:26;5.65;;;3.97;;
65202;SDS011;51788;45.124;38.966;2023-04-28T03:12:52;4.57;;;4.18;;
65202;SDS011;51788;45.124;38.966;2023-04-28T03:15:18;4.72;;;4.20;;
65202;SDS011;51788;45.124;38.966;2023-04-28T03:17:44;6.78;;;4.13;;
65202;SDS011;51788;45.124;38.966;2023-04-28T03:20:11;5.63;;;4.15;;
65202;SDS011;51788;45.124;38.966;2023-04-28T03:22:37;4.18;;;3.63;;
65202;SDS011;51788;45.124;38.966;2023-04-28T03:25:03;4.57;;;4.18;;
65202;SDS011;51788;45.124;38.966;2023-04-28T03:27:34;4.32;;;3.80;;
65202;SDS011;51788;45.124;38.966;2023-04-28T03:30:03;3.65;;;3.42;;
65202;SDS011;51788;45.124;38.966;2023-04-28T03:32:30;4.10;;;3.90;;
65202;SDS011;51788;45.124;38.966;2023-04-28T03:34:56;7.50;;;4.05;;
65202;SDS011;51788;45.124;38.966;2023-04-28T03:37:22;4.47;;;3.65;;
65202;SDS011;51788;45.124;38.966;2023-04-28T03:39:48;6.70;;;4.32;;
65202;SDS011;51788;45.124;38.966;2023-04-28T03:42:14;4.80;;;4.50;;
65202;SDS011;51788;45.124;38.966;2023-04-28T03:45:09;6.00;;;5.03;;
65202;SDS011;51788;45.124;38.966;2023-04-28T03:47:36;6.20;;;4.57;;
65202;SDS011;51788;45.124;38.966;2023-04-28T03:50:02;7.72;;;4.45;;
65202;SDS011;51788;45.124;38.966;2023-04-28T03:52:28;7.00;;;4.32;;
65202;SDS011;51788;45.124;38.966;2023-04-28T03:54:55;5.75;;;5.25;;
65202;SDS011;51788;45.124;38.966;2023-04-28T03:57:21;5.85;;;4.93;;
65202;SDS011;51788;45.124;38.966;2023-04-28T03:59:47;10.55;;;6.82;;
65202;SDS011;51788;45.124;38.966;2023-04-28T04:02:15;5.47;;;5.00;;
65202;SDS011;51788;45.124;38.966;2023-04-28T04:04:41;5.80;;;5.30;;
65202;SDS011;51788;45.124;38.966;2023-04-28T04:07:07;4.53;;;4.13;;
65202;SDS011;51788;45.124;38.966;2023-04-28T04:09:33;5.93;;;5.22;;
65202;SDS011;51788;45.124;38.966;2023-04-28T04:12:00;5.60;;;5.10;;
65202;SDS011;51788;45.124;38.966;2023-04-28T04:14:25;8.35;;;5.13;;
65202;SDS011;51788;45.124;38.966;2023-04-28T04:16:52;6.07;;;5.38;;
65202;SDS011;51788;45.124;38.966;2023-04-28T04:19:20;6.47;;;5.20;;
65202;SDS011;51788;45.124;38.966;2023-04-28T04:21:52;8.05;;;4.43;;
65202;SDS011;51788;45.124;38.966;2023-04-28T04:24:17;4.97;;;4.57;;
65202;SDS011;51788;45.124;38.966;2023-04-28T04:26:43;5.15;;;4.43;;
65202;SDS011;51788;45.124;38.966;2023-04-28T04:29:32;5.10;;;4.60;;
65202;SDS011;51788;45.124;38.966;2023-04-28T04:32:01;5.97;;;4.25;;
65202;SDS011;51788;45.124;38.966;2023-04-28T04:34:27;6.28;;;4.20;;
65202;SDS011;51788;45.124;38.966;2023-04-28T04:36:53;4.93;;;4.53;;
65202;SDS011;51788;45.124;38.966;2023-04-28T04:39:20;6.22;;;5.22;;
65202;SDS011;51788;45.124;38.966;2023-04-28T04:41:46;4.70;;;4.30;;
65202;SDS011;51788;45.124;38.966;2023-04-28T04:44:32;4.82;;;4.43;;
65202;SDS011;51788;45.124;38.966;2023-04-28T04:46:59;6.70;;;4.47;;
65202;SDS011;51788;45.124;38.966;2023-04-28T04:49:25;5.93;;;4.00;;
65202;SDS011;51788;45.124;38.966;2023-04-28T04:51:51;7.72;;;4.05;;
65202;SDS011;51788;45.124;38.966;2023-04-28T04:54:18;4.47;;;4.05;;
65202;SDS011;51788;45.124;38.966;2023-04-28T04:56:44;4.25;;;3.70;;
65202;SDS011;51788;45.124;38.966;2023-04-28T04:59:12;4.75;;;3.88;;
65202;SDS011;51788;45.124;38.966;2023-04-28T05:01:53;4.78;;;3.35;;
65202;SDS011;51788;45.124;38.966;2023-04-28T05:04:19;3.30;;;3.00;;
65202;SDS011;51788;45.124;38.966;2023-04-28T05:06:46;4.13;;;3.08;;
65202;SDS011;51788;45.124;38.966;2023-04-28T05:09:12;5.85;;;3.17;;
65202;SDS011;51788;45.124;38.966;2023-04-28T05:11:38;8.68;;;3.42;;
65202;SDS011;51788;45.124;38.966;2023-04-28T05:14:05;5.55;;;3.10;;
65202;SDS011;51788;45.124;38.966;2023-04-28T05:16:32;6.82;;;3.20;;
65202;SDS011;51788;45.124;38.966;2023-04-28T05:19:21;9.27;;;3.50;;
65202;SDS011;51788;45.124;38.966;2023-04-28T05:21:46;9.48;;;3.47;;
65202;SDS011;51788;45.124;38.966;2023-04-28T05:24:14;6.43;;;4.22;;
65202;SDS011;51788;45.124;38.966;2023-04-28T05:26:41;3.22;;;2.97;;
65202;SDS011;51788;45.124;38.966;2023-04-28T05:29:08;8.80;;;3.08;;
65202;SDS011;51788;45.124;38.966;2023-04-28T05:31:34;9.73;;;3.60;;
65202;SDS011;51788;45.124;38.966;2023-04-28T05:34:01;11.40;;;3.20;;
65202;SDS011;51788;45.124;38.966;2023-04-28T05:36:27;6.30;;;3.42;;
65202;SDS011;51788;45.124;38.966;2023-04-28T05:38:53;10.13;;;3.95;;
65202;SDS011;51788;45.124;38.966;2023-04-28T05:41:19;4.05;;;2.70;;
65202;SDS011;51788;45.124;38.966;2023-04-28T05:43:45;5.03;;;3.10;;
65202;SDS011;51788;45.124;38.966;2023-04-28T05:46:12;8.02;;;3.03;;
65202;SDS011;51788;45.124;38.966;2023-04-28T05:48:38;8.23;;;3.85;;
65202;SDS011;51788;45.124;38.966;2023-04-28T05:51:04;12.45;;;3.67;;
65202;SDS011;51788;45.124;38.966;2023-04-28T05:53:30;17.23;;;4.72;;
65202;SDS011;51788;45.124;38.966;2023-04-28T05:55:56;11.48;;;4.13;;
65202;SDS011;51788;45.124;38.966;2023-04-28T05:58:22;8.25;;;4.25;;
65202;SDS011;51788;45.124;38.966;2023-04-28T06:00:48;11.00;;;4.32;;
65202;SDS011;51788;45.124;38.966;2023-04-28T06:03:16;9.48;;;4.47;;
65202;SDS011;51788;45.124;38.966;2023-04-28T06:05:44;9.30;;;5.22;;
65202;SDS011;51788;45.124;38.966;2023-04-28T06:08:11;8.27;;;4.85;;
65202;SDS011;51788;45.124;38.966;2023-04-28T06:10:37;6.82;;;5.03;;
65202;SDS011;51788;45.124;38.966;2023-04-28T06:13:03;6.95;;;4.90;;
65202;SDS011;51788;45.124;38.966;2023-04-28T06:15:31;4.72;;;4.32;;
65202;SDS011;51788;45.124;38.966;2023-04-28T06:17:57;8.57;;;5.35;;
65202;SDS011;51788;45.124;38.966;2023-04-28T06:20:24;7.93;;;4.78;;
65202;SDS011;51788;45.124;38.966;2023-04-28T06:22:50;8.27;;;4.85;;
65202;SDS011;51788;45.124;38.966;2023-04-28T06:25:16;12.52;;;6.18;;
65202;SDS011;51788;45.124;38.966;2023-04-28T06:27:44;10.60;;;6.63;;
65202;SDS011;51788;45.124;38.966;2023-04-28T06:30:12;10.88;;;6.55;;
65202;SDS011;51788;45.124;38.966;2023-04-28T06:32:43;7.05;;;6.30;;
65202;SDS011;51788;45.124;38.966;2023-04-28T06:35:09;20.55;;;7.28;;
65202;SDS011;51788;45.124;38.966;2023-04-28T06:37:36;11.63;;;6.47;;
65202;SDS011;51788;45.124;38.966;2023-04-28T06:40:02;9.43;;;6.90;;
65202;SDS011;51788;45.124;38.966;2023-04-28T06:42:28;10.15;;;6.10;;
65202;SDS011;51788;45.124;38.966;2023-04-28T06:45:02;6.55;;;5.72;;
65202;SDS011;51788;45.124;38.966;2023-04-28T06:47:28;6.18;;;5.68;;
65202;SDS011;51788;45.124;38.966;2023-04-28T06:49:54;7.45;;;6.13;;
65202;SDS011;51788;45.124;38.966;2023-04-28T06:52:20;6.90;;;5.90;;
65202;SDS011;51788;45.124;38.966;2023-04-28T06:54:46;6.13;;;5.53;;
65202;SDS011;51788;45.124;38.966;2023-04-28T06:57:12;11.30;;;5.53;;
65202;SDS011;51788;45.124;38.966;2023-04-28T06:59:38;8.48;;;5.65;;
65202;SDS011;51788;45.124;38.966;2023-04-28T07:02:08;12.27;;;5.22;;
65202;SDS011;51788;45.124;38.966;2023-04-28T07:04:35;5.43;;;4.90;;
65202;SDS011;51788;45.124;38.966;2023-04-28T07:07:01;9.63;;;4.53;;
65202;SDS011;51788;45.124;38.966;2023-04-28T07:09:27;5.03;;;4.47;;
65202;SDS011;51788;45.124;38.966;2023-04-28T07:11:53;6.55;;;5.13;;
65202;SDS011;51788;45.124;38.966;2023-04-28T07:14:19;8.20;;;5.57;;
65202;SDS011;51788;45.124;38.966;2023-04-28T07:16:45;12.80;;;5.32;;
65202;SDS011;51788;45.124;38.966;2023-04-28T07:19:11;8.63;;;5.47;;
65202;SDS011;51788;45.124;38.966;2023-04-28T07:21:37;9.43;;;5.68;;
65202;SDS011;51788;45.124;38.966;2023-04-28T07:24:03;10.85;;;5.55;;
65202;SDS011;51788;45.124;38.966;2023-04-28T07:26:29;9.43;;;5.50;;
65202;SDS011;51788;45.124;38.966;2023-04-28T07:28:55;6.10;;;4.95;;
65202;SDS011;51788;45.124;38.966;2023-04-28T07:31:21;6.78;;;4.97;;
65202;SDS011;51788;45.124;38.966;2023-04-28T07:33:47;7.15;;;5.13;;
65202;SDS011;51788;45.124;38.966;2023-04-28T07:36:14;7.00;;;5.00;;
65202;SDS011;51788;45.124;38.966;2023-04-28T07:38:40;10.32;;;4.80;;
65202;SDS011;51788;45.124;38.966;2023-04-28T07:41:06;16.92;;;4.60;;
65202;SDS011;51788;45.124;38.966;2023-04-28T07:43:32;6.97;;;5.40;;
65202;SDS011;51788;45.124;38.966;2023-04-28T07:45:58;6.97;;;4.75;;
65202;SDS011;51788;45.124;38.966;2023-04-28T07:48:24;6.97;;;5.60;;
65202;SDS011;51788;45.124;38.966;2023-04-28T07:50:52;5.15;;;4.80;;
65202;SDS011;51788;45.124;38.966;2023-04-28T07:53:18;6.47;;;4.55;;
65202;SDS011;51788;45.124;38.966;2023-04-28T07:55:44;4.95;;;4.65;;
65202;SDS011;51788;45.124;38.966;2023-04-28T07:58:10;5.03;;;4.45;;
65202;SDS011;51788;45.124;38.966;2023-04-28T08:00:37;4.85;;;4.00;;
65202;SDS011;51788;45.124;38.966;2023-04-28T08:03:03;5.25;;;3.70;;
65202;SDS011;51788;45.124;38.966;2023-04-28T08:05:29;5.05;;;3.65;;
65202;SDS011;51788;45.124;38.966;2023-04-28T08:07:56;4.05;;;3.50;;
65202;SDS011;51788;45.124;38.966;2023-04-28T08:10:22;7.55;;;4.00;;
65202;SDS011;51788;45.124;38.966;2023-04-28T08:12:48;11.90;;;3.80;;
65202;SDS011;51788;45.124;38.966;2023-04-28T08:15:14;8.10;;;3.90;;
65202;SDS011;51788;45.124;38.966;2023-04-28T08:17:39;9.00;;;4.50;;
65202;SDS011;51788;45.124;38.966;2023-04-28T08:20:06;5.75;;;4.50;;
65202;SDS011;51788;45.124;38.966;2023-04-28T08:22:32;4.80;;;3.58;;
65202;SDS011;51788;45.124;38.966;2023-04-28T08:24:58;4.32;;;3.75;;
65202;SDS011;51788;45.124;38.966;2023-04-28T08:27:24;3.70;;;3.38;;
65202;SDS011;51788;45.124;38.966;2023-04-28T08:29:50;11.15;;;3.92;;
65202;SDS011;51788;45.124;38.966;2023-04-28T08:32:17;5.40;;;3.50;;
65202;SDS011;51788;45.124;38.966;2023-04-28T08:34:43;4.65;;;4.07;;
65202;SDS011;51788;45.124;38.966;2023-04-28T08:37:09;8.02;;;4.32;;
65202;SDS011;51788;45.124;38.966;2023-04-28T08:39:35;4.97;;;4.50;;
65202;SDS011;51788;45.124;38.966;2023-04-28T08:42:02;10.10;;;3.70;;
65202;SDS011;51788;45.124;38.966;2023-04-28T08:44:38;4.53;;;4.13;;
65202;SDS011;51788;45.124;38.966;2023-04-28T08:47:11;4.53;;;4.13;;
65202;SDS011;51788;45.124;38.966;2023-04-28T08:49:41;4.70;;;3.88;;
65202;SDS011;51788;45.124;38.966;2023-04-28T08:52:09;4.43;;;3.63;;
65202;SDS011;51788;45.124;38.966;2023-04-28T08:54:37;6.47;;;4.43;;
65202;SDS011;51788;45.124;38.966;2023-04-28T08:57:06;10.10;;;5.88;;
65202;SDS011;51788;45.124;38.966;2023-04-28T08:59:33;7.88;;;5.80;;
65202;SDS011;51788;45.124;38.966;2023-04-28T09:02:03;5.97;;;5.20;;
65202;SDS011;51788;45.124;38.966;2023-04-28T09:04:30;5.85;;;5.35;;
65202;SDS011;51788;45.124;38.966;2023-04-28T09:06:56;5.35;;;4.95;;
65202;SDS011;51788;45.124;38.966;2023-04-28T09:09:23;5.60;;;5.00;;
65202;SDS011;51788;45.124;38.966;2023-04-28T09:11:58;11.90;;;5.28;;
65202;SDS011;51788;45.124;38.966;2023-04-28T09:14:25;9.70;;;4.68;;
65202;SDS011;51788;45.124;38.966;2023-04-28T09:16:52;17.23;;;4.95;;
65202;SDS011;51788;45.124;38.966;2023-04-28T09:19:19;10.30;;;4.25;;
65202;SDS011;51788;45.124;38.966;2023-04-28T09:21:49;17.02;;;4.72;;
65202;SDS011;51788;45.124;38.966;2023-04-28T09:26:54;10.38;;;4.93;;
65202;SDS011;51788;45.124;38.966;2023-04-28T09:29:20;6.25;;;4.70;;
65202;SDS011;51788;45.124;38.966;2023-04-28T09:31:47;6.00;;;4.60;;
65202;SDS011;51788;45.124;38.966;2023-04-28T09:34:13;7.15;;;4.18;;
65202;SDS011;51788;45.124;38.966;2023-04-28T09:36:39;6.63;;;4.45;;
65202;SDS011;51788;45.124;38.966;2023-04-28T09:39:06;13.00;;;4.25;;
65202;SDS011;51788;45.124;38.966;2023-04-28T09:44:17;4.47;;;3.60;;
65202;SDS011;51788;45.124;38.966;2023-04-28T09:46:46;8.30;;;3.70;;
65202;SDS011;51788;45.124;38.966;2023-04-28T09:49:12;6.13;;;4.57;;
65202;SDS011;51788;45.124;38.966;2023-04-28T09:51:39;11.02;;;4.95;;
65202;SDS011;51788;45.124;38.966;2023-04-28T09:54:05;6.38;;;4.88;;
65202;SDS011;51788;45.124;38.966;2023-04-28T09:56:32;8.93;;;5.03;;
65202;SDS011;51788;45.124;38.966;2023-04-28T09:59:02;5.10;;;4.70;;
65202;SDS011;51788;45.124;38.966;2023-04-28T10:01:35;5.78;;;4.85;;
65202;SDS011;51788;45.124;38.966;2023-04-28T10:04:04;6.53;;;4.68;;
65202;SDS011;51788;45.124;38.966;2023-04-28T10:06:34;7.80;;;4.47;;
65202;SDS011;51788;45.124;38.966;2023-04-28T10:09:01;4.55;;;4.10;;
65202;SDS011;51788;45.124;38.966;2023-04-28T10:11:27;7.22;;;4.80;;
65202;SDS011;51788;45.124;38.966;2023-04-28T10:13:54;8.65;;;5.03;;
65202;SDS011;51788;45.124;38.966;2023-04-28T10:16:21;4.47;;;4.15;;
65202;SDS011;51788;45.124;38.966;2023-04-28T10:18:48;7.82;;;4.25;;
65202;SDS011;51788;45.124;38.966;2023-04-28T10:21:16;4.82;;;4.50;;
65202;SDS011;51788;45.124;38.966;2023-04-28T10:29:30;4.47;;;4.05;;
65202;SDS011;51788;45.124;38.966;2023-04-28T10:32:16;11.68;;;4.43;;
65202;SDS011;51788;45.124;38.966;2023-04-28T10:34:42;7.28;;;4.40;;
65202;SDS011;51788;45.124;38.966;2023-04-28T10:37:08;4.00;;;3.78;;
65202;SDS011;51788;45.124;38.966;2023-04-28T10:39:34;5.15;;;4.68;;
65202;SDS011;51788;45.124;38.966;2023-04-28T10:42:00;6.32;;;4.05;;
65202;SDS011;51788;45.124;38.966;2023-04-28T10:47:02;5.15;;;3.50;;
65202;SDS011;51788;45.124;38.966;2023-04-28T11:00:54;4.50;;;3.83;;
65202;SDS011;51788;45.124;38.966;2023-04-28T11:04:04;6.00;;;3.42;;
65202;SDS011;51788;45.124;38.966;2023-04-28T11:16:57;7.32;;;2.75;;
65202;SDS011;51788;45.124;38.966;2023-04-28T11:19:28;7.18;;;3.08;;
65202;SDS011;51788;45.124;38.966;2023-04-28T11:22:16;5.47;;;3.30;;
65202;SDS011;51788;45.124;38.966;2023-04-28T11:25:02;7.40;;;3.20;;
65202;SDS011;51788;45.124;38.966;2023-04-28T11:27:31;15.48;;;3.25;;
65202;SDS011;51788;45.124;38.966;2023-04-28T11:29:58;7.53;;;3.85;;
65202;SDS011;51788;45.124;38.966;2023-04-28T11:32:32;3.13;;;2.83;;
65202;SDS011;51788;45.124;38.966;2023-04-28T11:34:59;3.67;;;3.38;;
65202;SDS011;51788;45.124;38.966;2023-04-28T11:37:25;3.03;;;2.83;;
65202;SDS011;51788;45.124;38.966;2023-04-28T11:39:51;5.22;;;3.13;;
65202;SDS011;51788;45.124;38.966;2023-04-28T11:42:17;3.95;;;2.50;;
65202;SDS011;51788;45.124;38.966;2023-04-28T11:44:50;18.73;;;2.97;;
65202;SDS011;51788;45.124;38.966;2023-04-28T11:47:26;3.55;;;2.28;;
65202;SDS011;51788;45.124;38.966;2023-04-28T11:49:56;3.83;;;2.97;;
65202;SDS011;51788;45.124;38.966;2023-04-28T11:52:23;5.70;;;2.47;;
65202;SDS011;51788;45.124;38.966;2023-04-28T11:54:52;4.38;;;2.78;;
65202;SDS011;51788;45.124;38.966;2023-04-28T11:57:20;3.90;;;2.63;;
65202;SDS011;51788;45.124;38.966;2023-04-28T11:59:47;4.97;;;3.85;;
65202;SDS011;51788;45.124;38.966;2023-04-28T12:02:14;6.50;;;3.20;;
65202;SDS011;51788;45.124;38.966;2023-04-28T12:04:42;2.97;;;2.60;;
65202;SDS011;51788;45.124;38.966;2023-04-28T12:07:13;4.80;;;2.90;;
65202;SDS011;51788;45.124;38.966;2023-04-28T12:09:41;5.78;;;3.05;;
65202;SDS011;51788;45.124;38.966;2023-04-28T12:12:12;8.80;;;2.20;;
65202;SDS011;51788;45.124;38.966;2023-04-28T12:14:59;3.38;;;3.13;;
65202;SDS011;51788;45.124;38.966;2023-04-28T12:17:30;12.00;;;4.38;;
65202;SDS011;51788;45.124;38.966;2023-04-28T12:20:04;5.55;;;3.17;;
65202;SDS011;51788;45.124;38.966;2023-04-28T12:22:52;4.55;;;3.05;;
65202;SDS011;51788;45.124;38.966;2023-04-28T12:25:18;2.50;;;2.35;;
65202;SDS011;51788;45.124;38.966;2023-04-28T12:27:57;9.38;;;2.45;;
65202;SDS011;51788;45.124;38.966;2023-04-28T12:30:32;4.07;;;2.45;;
65202;SDS011;51788;45.124;38.966;2023-04-28T12:33:00;6.00;;;2.42;;
65202;SDS011;51788;45.124;38.966;2023-04-28T12:35:27;17.33;;;2.70;;
65202;SDS011;51788;45.124;38.966;2023-04-28T12:37:53;16.20;;;3.28;;
65202;SDS011;51788;45.124;38.966;2023-04-28T12:40:21;7.25;;;2.58;;
65202;SDS011;51788;45.124;38.966;2023-04-28T12:42:47;2.20;;;2.10;;
65202;SDS011;51788;45.124;38.966;2023-04-28T12:45:15;2.25;;;2.05;;
65202;SDS011;51788;45.124;38.966;2023-04-28T12:47:41;3.28;;;2.28;;
65202;SDS011;51788;45.124;38.966;2023-04-28T12:50:07;2.92;;;2.58;;
65202;SDS011;51788;45.124;38.966;2023-04-28T12:52:34;4.80;;;2.38;;
65202;SDS011;51788;45.124;38.966;2023-04-28T12:55:01;2.70;;;2.20;;
65202;SDS011;51788;45.124;38.966;2023-04-28T12:57:28;2.40;;;2.13;;
65202;SDS011;51788;45.124;38.966;2023-04-28T12:59:54;2.50;;;2.30;;
65202;SDS011;51788;45.124;38.966;2023-04-28T13:02:21;2.60;;;2.40;;
65202;SDS011;51788;45.124;38.966;2023-04-28T13:04:47;2.47;;;2.38;;
65202;SDS011;51788;45.124;38.966;2023-04-28T13:07:14;7.05;;;3.47;;
65202;SDS011;51788;45.124;38.966;2023-04-28T13:09:40;5.05;;;2.97;;
65202;SDS011;51788;45.124;38.966;2023-04-28T13:12:08;3.03;;;2.55;;
65202;SDS011;51788;45.124;38.966;2023-04-28T13:14:36;4.35;;;2.60;;
65202;SDS011;51788;45.124;38.966;2023-04-28T13:17:02;2.55;;;2.40;;
65202;SDS011;51788;45.124;38.966;2023-04-28T13:19:28;3.78;;;2.83;;
65202;SDS011;51788;45.124;38.966;2023-04-28T13:21:55;7.90;;;2.80;;
65202;SDS011;51788;45.124;38.966;2023-04-28T13:24:21;2.85;;;2.63;;
65202;SDS011;51788;45.124;38.966;2023-04-28T13:26:48;6.22;;;3.35;;
65202;SDS011;51788;45.124;38.966;2023-04-28T13:29:14;3.53;;;3.22;;
65202;SDS011;51788;45.124;38.966;2023-04-28T13:31:40;4.22;;;3.15;;
65202;SDS011;51788;45.124;38.966;2023-04-28T13:34:06;3.65;;;3.40;;
65202;SDS011;51788;45.124;38.966;2023-04-28T13:36:33;4.13;;;3.83;;
65202;SDS011;51788;45.124;38.966;2023-04-28T13:38:59;9.98;;;4.55;;
65202;SDS011;51788;45.124;38.966;2023-04-28T13:41:25;8.30;;;4.10;;
65202;SDS011;51788;45.124;38.966;2023-04-28T13:43:52;7.68;;;3.95;;
65202;SDS011;51788;45.124;38.966;2023-04-28T13:46:18;8.70;;;3.88;;
65202;SDS011;51788;45.124;38.966;2023-04-28T13:48:45;5.45;;;3.60;;
65202;SDS011;51788;45.124;38.966;2023-04-28T13:51:11;5.50;;;3.35;;
65202;SDS011;51788;45.124;38.966;2023-04-28T13:53:37;9.23;;;3.20;;
65202;SDS011;51788;45.124;38.966;2023-04-28T13:56:03;3.92;;;3.33;;
65202;SDS011;51788;45.124;38.966;2023-04-28T13:58:31;6.55;;;4.10;;
65202;SDS011;51788;45.124;38.966;2023-04-28T14:00:57;5.53;;;4.97;;
65202;SDS011;51788;45.124;38.966;2023-04-28T14:03:24;8.95;;;5.63;;
65202;SDS011;51788;45.124;38.966;2023-04-28T14:05:51;5.13;;;4.63;;
65202;SDS011;51788;45.124;38.966;2023-04-28T14:08:18;8.85;;;3.90;;
65202;SDS011;51788;45.124;38.966;2023-04-28T14:10:46;14.20;;;3.58;;
65202;SDS011;51788;45.124;38.966;2023-04-28T14:13:12;3.67;;;3.33;;
65202;SDS011;51788;45.124;38.966;2023-04-28T14:15:39;6.63;;;3.65;;
65202;SDS011;51788;45.124;38.966;2023-04-28T14:18:06;4.10;;;3.30;;
65202;SDS011;51788;45.124;38.966;2023-04-28T14:20:34;3.85;;;3.55;;
65202;SDS011;51788;45.124;38.966;2023-04-28T14:23:00;4.43;;;3.50;;
65202;SDS011;51788;45.124;38.966;2023-04-28T14:25:28;18.45;;;4.10;;
65202;SDS011;51788;45.124;38.966;2023-04-28T14:27:54;13.80;;;4.53;;
65202;SDS011;51788;45.124;38.966;2023-04-28T14:30:20;3.70;;;3.42;;
65202;SDS011;51788;45.124;38.966;2023-04-28T14:32:47;3.83;;;3.53;;
65202;SDS011;51788;45.124;38.966;2023-04-28T14:35:13;9.95;;;4.72;;
65202;SDS011;51788;45.124;38.966;2023-04-28T14:37:40;36.20;;;4.32;;
65202;SDS011;51788;45.124;38.966;2023-04-28T14:40:07;7.15;;;4.25;;
65202;SDS011;51788;45.124;38.966;2023-04-28T14:42:34;10.55;;;5.35;;
65202;SDS011;51788;45.124;38.966;2023-04-28T14:45:10;5.32;;;4.82;;
65202;SDS011;51788;45.124;38.966;2023-04-28T14:47:37;8.35;;;4.93;;
65202;SDS011;51788;45.124;38.966;2023-04-28T14:50:04;7.43;;;5.70;;
65202;SDS011;51788;45.124;38.966;2023-04-28T14:52:31;8.10;;;7.25;;
65202;SDS011;51788;45.124;38.966;2023-04-28T14:54:58;8.65;;;4.95;;
65202;SDS011;51788;45.124;38.966;2023-04-28T14:57:25;6.20;;;4.43;;
65202;SDS011;51788;45.124;38.966;2023-04-28T14:59:52;5.45;;;4.95;;
65202;SDS011;51788;45.124;38.966;2023-04-28T15:02:19;6.35;;;5.47;;
65202;SDS011;51788;45.124;38.966;2023-04-28T15:04:51;7.25;;;6.10;;
65202;SDS011;51788;45.124;38.966;2023-04-28T15:07:17;8.45;;;7.50;;
65202;SDS011;51788;45.124;38.966;2023-04-28T15:09:43;4.95;;;4.57;;
65202;SDS011;51788;45.124;38.966;2023-04-28T15:12:09;7.22;;;4.90;;
65202;SDS011;51788;45.124;38.966;2023-04-28T15:14:35;15.00;;;5.47;;